Time;durP1;ratioP1;P1;durP2;ratioP2;P2;SDS_P1;SDS_P2;PMS_P1;PMS_P2;Temp;Humidity;BMP_temperature;BMP_pressure;BME280_temperature;BME280_humidity;BME280_pressure;Samples;Min_cycle;Max_cycle;Signal;HPM_P1;HPM_P2
2022/06/22 00:01:21;;;;;;;6.70;6.10;;;24.20;99.90;;;;;;5093336;28;20558;-58
2022/06/22 00:03:51;;;;;;;7.10;5.77;;;24.20;99.90;;;;;;5094050;28;20864;-58
2022/06/22 00:06:26;;;;;;;7.90;6.40;;;24.10;99.90;;;;;;5093265;28;20797;-57
2022/06/22 00:08:54;;;;;;;7.13;6.47;;;24.10;99.90;;;;;;5093221;28;20471;-57
2022/06/22 00:11:21;;;;;;;7.13;6.43;;;24.30;99.90;;;;;;5093522;28;20443;-58
2022/06/22 00:13:51;;;;;;;6.53;5.97;;;24.40;99.90;;;;;;5093195;28;20854;-58
2022/06/22 00:16:24;;;;;;;7.30;6.70;;;24.20;99.90;;;;;;5093385;28;20486;-57
2022/06/22 00:18:53;;;;;;;8.23;7.37;;;24.10;99.90;;;;;;5094245;28;20464;-57
2022/06/22 00:21:23;;;;;;;10.53;7.80;;;24.00;99.90;;;;;;5093793;28;20515;-58
2022/06/22 00:23:52;;;;;;;11.77;7.07;;;23.90;99.90;;;;;;5093170;28;20435;-57
2022/06/22 00:26:31;;;;;;;9.40;8.47;;;23.90;99.90;;;;;;5093074;28;20530;-57
2022/06/22 00:29:20;;;;;;;8.10;7.50;;;23.80;99.90;;;;;;5093389;28;20467;-58
2022/06/22 00:32:12;;;;;;;7.47;6.77;;;23.70;99.90;;;;;;5093053;28;20505;-57
2022/06/22 00:34:39;;;;;;;8.63;7.83;;;23.60;99.90;;;;;;5093420;28;20436;-58
2022/06/22 00:37:14;;;;;;;9.23;8.23;;;23.60;99.90;;;;;;5092798;28;20498;-58
2022/06/22 00:39:44;;;;;;;7.37;6.77;;;23.50;99.90;;;;;;5093258;28;20562;-58
2022/06/22 00:42:28;;;;;;;6.70;6.10;;;23.60;99.90;;;;;;5092949;28;20479;-58
2022/06/22 00:45:00;;;;;;;8.00;5.40;;;23.70;99.90;;;;;;5092951;28;20450;-58
2022/06/22 00:47:32;;;;;;;6.80;6.30;;;23.80;99.90;;;;;;5093258;28;20503;-57
2022/06/22 00:50:13;;;;;;;6.50;5.90;;;23.90;99.90;;;;;;5092832;28;20828;-57
2022/06/22 00:52:43;;;;;;;7.87;7.17;;;23.90;99.90;;;;;;5092907;28;20432;-58
2022/06/22 00:55:27;;;;;;;7.50;6.80;;;23.80;99.90;;;;;;5093127;28;20479;-58
2022/06/22 00:58:01;;;;;;;8.43;7.23;;;23.80;99.90;;;;;;5092787;28;20985;-58
2022/06/22 01:00:32;;;;;;;7.60;6.93;;;23.70;99.90;;;;;;5093036;28;20467;-58
2022/06/22 01:03:13;;;;;;;8.33;7.50;;;23.70;99.90;;;;;;5095938;28;20424;-57
2022/06/22 01:05:47;;;;;;;8.40;6.60;;;23.80;99.90;;;;;;5096646;28;20522;-57
2022/06/22 01:08:20;;;;;;;6.30;5.70;;;23.80;99.90;;;;;;5096835;28;20497;-57
2022/06/22 01:10:55;;;;;;;8.13;7.43;;;23.90;99.90;;;;;;5096326;28;20942;-57
2022/06/22 01:13:28;;;;;;;6.97;6.40;;;24.00;99.90;;;;;;5096847;28;20539;-57
2022/06/22 01:15:59;;;;;;;6.57;6.07;;;24.00;99.90;;;;;;5096494;28;20440;-57
2022/06/22 01:18:32;;;;;;;6.63;6.13;;;24.00;99.90;;;;;;5096065;28;21041;-57
2022/06/22 01:21:05;;;;;;;8.07;7.27;;;23.90;99.90;;;;;;5095944;28;20988;-57
2022/06/22 01:24:05;;;;;;;6.80;6.30;;;23.90;99.90;;;;;;5096053;28;20515;-57
2022/06/22 01:26:48;;;;;;;7.30;6.60;;;23.90;99.90;;;;;;5075699;28;20545;-57
2022/06/22 01:29:19;;;;;;;9.10;6.77;;;23.80;99.90;;;;;;5095793;28;20492;-57
2022/06/22 01:31:59;;;;;;;7.27;6.57;;;23.70;99.90;;;;;;5096178;28;20424;-57
2022/06/22 01:34:32;;;;;;;8.30;6.83;;;23.70;99.90;;;;;;5095776;28;20420;-57
2022/06/22 01:37:02;;;;;;;7.33;6.73;;;23.70;99.90;;;;;;5095556;28;20495;-58
2022/06/22 01:39:29;;;;;;;7.10;6.40;;;23.60;99.90;;;;;;5095666;28;20471;-58
2022/06/22 01:42:01;;;;;;;9.93;7.57;;;;;;;;;;5095921;28;20454;-58
2022/06/22 01:44:37;;;;;;;9.37;8.30;;;23.50;99.90;;;;;;5095883;28;20433;-57
2022/06/22 01:47:21;;;;;;;7.23;6.63;;;23.50;99.90;;;;;;5095634;28;20519;-57
2022/06/22 01:49:56;;;;;;;9.17;7.10;;;23.50;99.90;;;;;;5095445;28;20478;-57
2022/06/22 01:52:39;;;;;;;11.73;7.10;;;23.40;99.90;;;;;;5095765;28;20898;-58
2022/06/22 01:55:16;;;;;;;7.83;7.13;;;23.40;99.90;;;;;;5095748;28;20522;-57
2022/06/22 01:57:47;;;;;;;8.60;7.80;;;23.60;99.90;;;;;;5095276;28;20476;-58
2022/06/22 02:00:19;;;;;;;9.27;7.97;;;23.40;99.90;;;;;;5095583;28;20891;-58
2022/06/22 02:02:51;;;;;;;7.47;6.73;;;23.30;99.90;;;;;;5095581;28;20819;-58
2022/06/22 02:05:23;;;;;;;9.23;8.53;;;23.30;99.90;;;;;;5095522;28;20515;-58
2022/06/22 02:07:56;;;;;;;8.67;7.87;;;23.30;99.90;;;;;;5095644;28;20446;-57
2022/06/22 02:10:38;;;;;;;9.03;8.20;;;23.10;99.90;;;;;;5095360;28;20543;-57
2022/06/22 02:13:14;;;;;;;9.07;7.37;;;23.10;99.90;;;;;;5094949;28;20981;-57
2022/06/22 02:15:50;;;;;;;8.13;7.43;;;23.20;99.90;;;;;;5095035;28;20966;-57
2022/06/22 02:18:22;;;;;;;8.23;7.43;;;23.30;99.90;;;;;;5095158;28;20467;-58
2022/06/22 02:20:49;;;;;;;11.17;7.20;;;23.30;99.90;;;;;;5094865;28;20547;-57
2022/06/22 02:23:22;;;;;;;8.97;8.07;;;23.40;99.90;;;;;;5094820;28;20535;-57
2022/06/22 02:25:59;;;;;;;8.40;7.57;;;23.30;99.90;;;;;;5095637;28;20424;-58
2022/06/22 02:28:27;;;;;;;7.23;6.50;;;23.20;99.90;;;;;;5095075;28;20434;-58
2022/06/22 02:30:57;;;;;;;8.60;7.90;;;23.20;99.90;;;;;;5094917;28;20516;-57
2022/06/22 02:33:25;;;;;;;6.93;6.23;;;23.20;99.90;;;;;;5095481;28;20490;-58
2022/06/22 02:35:54;;;;;;;8.70;7.87;;;23.20;99.90;;;;;;5094868;28;20451;-58
2022/06/22 02:38:21;;;;;;;8.40;7.60;;;23.40;99.90;;;;;;5094340;28;20578;-57
2022/06/22 02:46:24;;;;;;;8.83;8.13;;;23.10;99.90;;;;;;5094781;28;20458;-57
2022/06/22 02:48:55;;;;;;;7.43;6.73;;;23.10;99.90;;;;;;5094277;28;20447;-58
2022/06/22 02:51:27;;;;;;;8.57;7.67;;;23.10;99.90;;;;;;5094346;28;20432;-58
2022/06/22 02:53:57;;;;;;;8.47;7.73;;;23.40;99.90;;;;;;5094575;28;20822;-57
2022/06/22 02:56:29;;;;;;;12.77;8.40;;;23.50;99.90;;;;;;5094485;28;20527;-57
2022/06/22 02:58:56;;;;;;;8.50;7.07;;;23.40;99.90;;;;;;5094632;28;20452;-58
2022/06/22 03:01:27;;;;;;;9.73;7.57;;;23.40;99.90;;;;;;5094445;28;20444;-57
2022/06/22 03:03:58;;;;;;;7.80;7.20;;;23.50;99.90;;;;;;5094404;28;20531;-58
2022/06/22 03:06:29;;;;;;;9.87;9.07;;;23.40;99.90;;;;;;5094164;28;20487;-58
2022/06/22 03:08:58;;;;;;;8.73;7.80;;;23.20;99.90;;;;;;5093935;28;20479;-58
2022/06/22 03:11:25;;;;;;;7.73;7.00;;;23.20;99.90;;;;;;5093936;28;20534;-58
2022/06/22 03:13:58;;;;;;;9.20;8.17;;;23.30;99.90;;;;;;5093969;28;20432;-57
2022/06/22 03:16:30;;;;;;;11.23;8.40;;;23.20;99.90;;;;;;5094155;28;20424;-58
2022/06/22 03:19:01;;;;;;;10.10;8.70;;;23.20;99.90;;;;;;5094004;28;20463;-58
2022/06/22 03:21:29;;;;;;;9.03;8.23;;;23.10;99.90;;;;;;5094076;28;20519;-57
2022/06/22 03:24:03;;;;;;;9.00;8.30;;;22.90;99.90;;;;;;5093250;28;20542;-57
2022/06/22 03:26:35;;;;;;;9.30;8.30;;;22.90;99.90;;;;;;5093807;28;20411;-58
2022/06/22 03:29:06;;;;;;;11.20;8.63;;;22.90;99.90;;;;;;5094156;28;20448;-58
2022/06/22 03:31:43;;;;;;;7.27;6.63;;;22.80;99.90;;;;;;5094746;28;20443;-58
2022/06/22 03:34:15;;;;;;;7.90;7.03;;;22.90;99.90;;;;;;5093628;28;20441;-57
2022/06/22 03:36:48;;;;;;;7.90;7.23;;;23.10;99.90;;;;;;5093626;28;20489;-57
2022/06/22 03:39:18;;;;;;;10.80;7.50;;;23.20;99.90;;;;;;5093599;28;21053;-58
2022/06/22 03:41:50;;;;;;;7.37;6.77;;;23.10;99.90;;;;;;5094041;28;20424;-58
2022/06/22 03:44:22;;;;;;;8.17;7.33;;;22.90;99.90;;;;;;5094545;28;20826;-58
2022/06/22 03:46:55;;;;;;;8.37;7.67;;;22.80;99.90;;;;;;5093922;28;20508;-58
2022/06/22 03:49:29;;;;;;;8.77;7.83;;;22.80;99.90;;;;;;5093563;28;20463;-57
2022/06/22 03:52:02;;;;;;;8.40;7.60;;;22.80;99.90;;;;;;5093588;28;20772;-57
2022/06/22 03:54:36;;;;;;;10.53;7.87;;;22.80;99.90;;;;;;5093638;28;20941;-57
2022/06/22 03:57:08;;;;;;;8.57;7.73;;;22.90;99.90;;;;;;5093613;28;20897;-57
2022/06/22 03:59:37;;;;;;;12.67;8.53;;;23.20;99.90;;;;;;5093739;28;20448;-57
2022/06/22 04:02:06;;;;;;;9.37;8.30;;;23.30;99.90;;;;;;5093835;28;20443;-57
2022/06/22 04:04:34;;;;;;;7.70;7.00;;;23.30;99.90;;;;;;5093429;28;20447;-57
2022/06/22 04:07:01;;;;;;;7.60;6.90;;;23.20;99.90;;;;;;5093559;28;20458;-58
2022/06/22 04:09:32;;;;;;;8.87;8.07;;;23.00;99.90;;;;;;5093233;28;20547;-57
2022/06/22 04:12:05;;;;;;;7.23;6.60;;;22.90;99.90;;;;;;5093333;28;20980;-57
2022/06/22 04:14:40;;;;;;;10.80;8.00;;;22.80;99.90;;;;;;5093908;28;20515;-58
2022/06/22 04:17:15;;;;;;;9.10;8.27;;;22.90;99.90;;;;;;5093836;28;20515;-57
2022/06/22 04:19:47;;;;;;;10.00;7.63;;;23.00;99.90;;;;;;5093218;28;20542;-57
2022/06/22 04:22:16;;;;;;;8.37;7.50;;;22.90;99.90;;;;;;5093742;28;20438;-57
2022/06/22 04:24:49;;;;;;;8.00;7.30;;;23.10;99.90;;;;;;5094241;28;20443;-57
2022/06/22 04:27:21;;;;;;;7.43;6.63;;;23.20;99.90;;;;;;5093524;28;20519;-57
2022/06/22 04:29:55;;;;;;;8.80;7.90;;;23.10;99.90;;;;;;5093137;28;21068;-57
2022/06/22 04:32:27;;;;;;;9.43;7.40;;;23.10;99.90;;;;;;5093131;28;20519;-58
2022/06/22 04:35:00;;;;;;;8.00;7.27;;;23.10;99.90;;;;;;5093546;28;20434;-57
2022/06/22 04:37:40;;;;;;;8.40;7.70;;;23.00;99.90;;;;;;5095365;28;20981;-58
2022/06/22 04:40:18;;;;;;;8.10;7.30;;;23.00;99.90;;;;;;5096852;28;20462;-58
2022/06/22 04:42:46;;;;;;;8.57;7.80;;;22.90;99.90;;;;;;5097641;28;20447;-57
2022/06/22 04:45:29;;;;;;;8.50;7.70;;;22.90;99.90;;;;;;5096843;28;20483;-58
2022/06/22 04:48:03;;;;;;;7.97;7.17;;;22.90;99.90;;;;;;5097146;28;20510;-58
2022/06/22 04:50:31;;;;;;;9.43;7.33;;;23.10;99.90;;;;;;5097177;28;20466;-58
2022/06/22 04:53:02;;;;;;;7.77;7.00;;;23.00;99.90;;;;;;5096962;28;20454;-58
2022/06/22 04:55:30;;;;;;;7.87;6.47;;;22.90;99.90;;;;;;5097178;28;20439;-58
2022/06/22 04:58:02;;;;;;;7.40;6.70;;;22.80;99.90;;;;;;5096857;28;20471;-58
2022/06/22 05:00:34;;;;;;;7.87;6.77;;;22.80;99.90;;;;;;5096389;28;20467;-58
2022/06/22 05:03:08;;;;;;;7.40;6.70;;;22.80;99.90;;;;;;5096816;28;20432;-58
2022/06/22 05:05:36;;;;;;;8.00;7.03;;;22.90;99.90;;;;;;5096483;28;20437;-57
2022/06/22 05:08:10;;;;;;;8.10;7.30;;;23.00;99.90;;;;;;5096886;28;20558;-57
2022/06/22 05:10:44;;;;;;;7.77;7.17;;;23.00;99.90;;;;;;5096329;28;20501;-58
2022/06/22 05:13:15;;;;;;;8.27;7.47;;;23.00;99.90;;;;;;5096215;28;20522;-58
2022/06/22 05:15:46;;;;;;;8.70;7.97;;;23.00;99.90;;;;;;5096279;28;20960;-58
2022/06/22 05:18:19;;;;;;;10.83;8.37;;;22.90;99.90;;;;;;5096466;28;20468;-58
2022/06/22 05:20:52;;;;;;;9.77;8.83;;;22.80;99.90;;;;;;5095996;28;20550;-58
2022/06/22 05:23:23;;;;;;;11.33;9.43;;;22.90;99.90;;;;;;5096082;28;20921;-58
2022/06/22 05:25:52;;;;;;;9.07;8.20;;;23.00;99.90;;;;;;5096279;28;20475;-58
2022/06/22 05:28:24;;;;;;;13.83;9.83;;;23.10;99.90;;;;;;5095996;28;20439;-57
2022/06/22 05:30:55;;;;;;;9.67;8.57;;;23.10;99.90;;;;;;5095814;28;20547;-57
2022/06/22 05:33:26;;;;;;;9.70;7.73;;;23.00;99.90;;;;;;5096213;28;20427;-58
2022/06/22 05:36:01;;;;;;;11.83;8.60;;;23.10;99.90;;;;;;5095756;28;20431;-58
2022/06/22 05:38:28;;;;;;;12.97;9.47;;;23.30;99.90;;;;;;5095532;28;20490;-57
2022/06/22 05:40:56;;;;;;;15.30;9.03;;;23.30;99.90;;;;;;5095834;28;20503;-57
2022/06/22 05:43:25;;;;;;;9.10;8.20;;;23.30;99.90;;;;;;5095559;28;20447;-57
2022/06/22 05:45:55;;;;;;;8.20;7.50;;;23.50;99.90;;;;;;5095737;28;20538;-58
2022/06/22 05:48:26;;;;;;;9.03;8.03;;;23.60;99.90;;;;;;5095592;28;20478;-58
2022/06/22 05:50:58;;;;;;;10.07;8.90;;;23.60;99.90;;;;;;5095678;28;20463;-58
2022/06/22 05:53:31;;;;;;;12.27;10.23;;;23.50;99.90;;;;;;5095726;28;20420;-57
2022/06/22 05:56:11;;;;;;;10.57;9.00;;;23.40;99.90;;;;;;5095296;28;20980;-58
2022/06/22 05:58:44;;;;;;;10.93;9.80;;;23.30;99.90;;;;;;5095494;28;20477;-57
2022/06/22 06:01:21;;;;;;;10.00;8.80;;;23.40;99.90;;;;;;5095238;28;20486;-58
2022/06/22 06:03:59;;;;;;;7.97;7.27;;;23.40;99.90;;;;;;5095633;28;20512;-58
2022/06/22 06:06:29;;;;;;;10.43;9.43;;;23.40;99.90;;;;;;5095195;28;20919;-58
2022/06/22 06:08:59;;;;;;;10.33;9.47;;;23.30;99.90;;;;;;5095153;28;20469;-58
2022/06/22 06:11:30;;;;;;;10.93;8.20;;;23.20;99.90;;;;;;5095513;28;20990;-58
2022/06/22 06:14:01;;;;;;;9.43;8.53;;;23.30;99.90;;;;;;5094912;28;20791;-58
2022/06/22 06:16:35;;;;;;;8.93;7.87;;;23.30;99.90;;;;;;5095260;28;20447;-57
2022/06/22 06:19:06;;;;;;;7.70;7.03;;;23.50;99.90;;;;;;5095158;28;20570;-57
2022/06/22 06:21:37;;;;;;;10.47;7.63;;;23.50;99.90;;;;;;5095228;28;20428;-57
2022/06/22 06:24:12;;;;;;;9.13;7.37;;;23.90;99.90;;;;;;5094879;28;20474;-57
2022/06/22 06:29:35;;;;;;;8.77;7.87;;;23.80;99.90;;;;;;5094955;28;20443;-58
2022/06/22 06:32:21;;;;;;;9.47;7.90;;;23.80;99.90;;;;;;5095122;28;20458;-58
2022/06/22 06:34:56;;;;;;;10.60;8.70;;;23.80;99.90;;;;;;5094883;28;20427;-58
2022/06/22 06:37:39;;;;;;;8.10;7.13;;;23.80;99.90;;;;;;5094456;28;20489;-58
2022/06/22 06:40:12;;;;;;;8.50;7.40;;;23.70;99.90;;;;;;5094325;28;20486;-58
2022/06/22 06:42:45;;;;;;;7.90;7.10;;;23.70;99.90;;;;;;5094587;28;20432;-58
2022/06/22 06:45:16;;;;;;;8.00;7.30;;;23.80;99.90;;;;;;5094185;28;20463;-57
2022/06/22 06:47:49;;;;;;;8.40;7.17;;;23.90;99.90;;;;;;5094229;28;20523;-57
2022/06/22 06:50:23;;;;;;;8.00;7.20;;;24.00;99.90;;;;;;5094538;28;20900;-58
2022/06/22 06:52:57;;;;;;;7.30;6.60;;;24.00;99.90;;;;;;5094554;28;20777;-57
2022/06/22 06:55:32;;;;;;;9.03;7.70;;;23.90;99.90;;;;;;5094031;28;20514;-58
2022/06/22 06:58:06;;;;;;;8.43;7.20;;;23.90;99.90;;;;;;5093909;28;20877;-58
2022/06/22 07:00:34;;;;;;;7.03;6.30;;;23.90;99.90;;;;;;5093593;28;20462;-57
2022/06/22 07:03:02;;;;;;;10.73;7.70;;;23.80;99.90;;;;;;5093954;28;20527;-58
2022/06/22 07:05:32;;;;;;;11.97;9.27;;;23.60;99.90;;;;;;5094159;28;20482;-57
2022/06/22 07:08:06;;;;;;;7.90;7.17;;;23.50;99.90;;;;;;5094322;28;20459;-57
2022/06/22 07:10:39;;;;;;;9.53;8.73;;;23.60;99.90;;;;;;5093778;28;20469;-58
2022/06/22 07:13:12;;;;;;;12.73;9.80;;;23.80;99.90;;;;;;5093860;28;20438;-57
2022/06/22 07:15:42;;;;;;;10.03;9.13;;;23.50;99.90;;;;;;5093828;28;20526;-58
2022/06/22 07:18:20;;;;;;;9.47;8.57;;;23.30;99.90;;;;;;5093885;28;20467;-58
2022/06/22 07:20:54;;;;;;;10.00;8.73;;;23.20;99.90;;;;;;5093836;28;20491;-58
2022/06/22 07:23:26;;;;;;;10.60;9.03;;;23.10;99.90;;;;;;5093674;28;20523;-57
2022/06/22 07:25:59;;;;;;;11.33;8.53;;;22.90;99.90;;;;;;5093859;28;20432;-58
2022/06/22 07:28:33;;;;;;;10.10;9.17;;;22.90;99.90;;;;;;5093478;28;20863;-57
2022/06/22 07:31:06;;;;;;;10.30;9.30;;;22.90;99.90;;;;;;5093348;28;20463;-57
2022/06/22 07:33:37;;;;;;;10.00;9.00;;;22.90;99.90;;;;;;5093671;28;20446;-58
2022/06/22 07:36:13;;;;;;;8.53;7.73;;;22.90;99.90;;;;;;5093202;28;20436;-58
2022/06/22 07:38:50;;;;;;;9.50;8.50;;;22.90;99.90;;;;;;5093075;28;20491;-58
2022/06/22 07:41:20;;;;;;;8.90;8.00;;;23.00;99.90;;;;;;5093922;28;20515;-57
2022/06/22 07:43:49;;;;;;;10.33;9.43;;;23.20;99.90;;;;;;5093327;28;20532;-57
2022/06/22 07:46:24;;;;;;;10.50;9.50;;;23.30;99.90;;;;;;5093308;28;21003;-58
2022/06/22 07:48:56;;;;;;;13.80;8.50;;;23.30;99.90;;;;;;5093470;28;20905;-58
2022/06/22 07:51:29;;;;;;;10.73;7.83;;;23.20;99.90;;;;;;5093473;28;20430;-58
2022/06/22 07:54:03;;;;;;;14.40;10.13;;;23.10;99.90;;;;;;5093178;28;20489;-57
2022/06/22 07:56:41;;;;;;;11.37;10.00;;;23.00;99.90;;;;;;5093177;28;20602;-57
2022/06/22 07:59:11;;;;;;;9.93;8.10;;;22.90;99.90;;;;;;5093672;28;20487;-58
2022/06/22 08:01:41;;;;;;;12.67;8.70;;;23.10;99.90;;;;;;5093407;28;20539;-58
2022/06/22 08:04:17;;;;;;;9.60;8.60;;;23.30;99.90;;;;;;5093062;28;20447;-57
2022/06/22 08:06:51;;;;;;;14.23;9.37;;;23.30;99.90;;;;;;5093119;28;20501;-57
2022/06/22 08:09:22;;;;;;;14.63;10.00;;;23.30;99.90;;;;;;5093096;28;20966;-57
2022/06/22 08:11:55;;;;;;;11.77;9.07;;;23.30;99.90;;;;;;5097254;28;20427;-57
2022/06/22 08:14:28;;;;;;;10.80;9.70;;;23.40;99.90;;;;;;5097188;28;20526;-58
2022/06/22 08:16:59;;;;;;;10.37;9.03;;;23.40;99.90;;;;;;5097412;28;20428;-57
2022/06/22 08:19:28;;;;;;;10.80;9.90;;;23.40;99.90;;;;;;5096758;28;20896;-57
2022/06/22 08:22:00;;;;;;;16.13;8.57;;;23.10;99.90;;;;;;5096876;28;20454;-57
2022/06/22 08:24:30;;;;;;;10.03;8.80;;;23.20;99.90;;;;;;5097538;28;20427;-57
2022/06/22 08:26:58;;;;;;;11.83;8.67;;;23.10;99.90;;;;;;5097134;28;20483;-58
2022/06/22 08:29:27;;;;;;;13.50;9.87;;;23.20;99.90;;;;;;5097081;28;20473;-57
2022/06/22 08:31:59;;;;;;;10.97;9.10;;;23.30;99.90;;;;;;5096866;28;20531;-58
2022/06/22 08:34:32;;;;;;;10.60;9.27;;;23.30;99.90;;;;;;5097087;28;20765;-56
2022/06/22 08:37:07;;;;;;;17.00;9.40;;;23.20;99.90;;;;;;5096773;28;20558;-58
2022/06/22 08:39:40;;;;;;;9.60;8.70;;;23.20;99.90;;;;;;5096833;28;20490;-58
2022/06/22 08:42:19;;;;;;;9.40;7.43;;;23.40;99.90;;;;;;5096843;28;20432;-58
2022/06/22 08:44:59;;;;;;;16.03;8.17;;;23.30;99.90;;;;;;5096615;28;20423;-59
2022/06/22 08:48:07;;;;;;;9.73;8.33;;;23.30;99.90;;;;;;5096675;28;20534;-58
2022/06/22 08:50:46;;;;;;;10.23;9.23;;;23.40;99.90;;;;;;5096521;28;20486;-57
2022/06/22 08:53:38;;;;;;;9.30;8.30;;;23.30;99.90;;;;;;5096550;28;20430;-57
2022/06/22 08:56:18;;;;;;;9.33;8.33;;;23.30;99.90;;;;;;5096659;28;20455;-57
2022/06/22 08:59:14;;;;;;;8.80;7.90;;;23.40;99.90;;;;;;5096240;28;20432;-58
2022/06/22 09:01:52;;;;;;;9.13;7.83;;;23.30;99.90;;;;;;5096218;28;20443;-58
2022/06/22 09:04:49;;;;;;;9.20;8.40;;;23.30;99.90;;;;;;5096401;28;20438;-56
2022/06/22 09:07:36;;;;;;;11.50;7.87;;;23.50;99.90;;;;;;5096474;28;20461;-57
2022/06/22 09:10:39;;;;;;;9.30;8.40;;;23.60;99.90;;;;;;5095947;28;20850;-57
2022/06/22 09:13:46;;;;;;;8.63;7.83;;;23.70;99.90;;;;;;5096235;28;20446;-57
2022/06/22 09:16:28;;;;;;;11.60;9.47;;;23.70;99.90;;;;;;5095974;28;20451;-57
2022/06/22 09:19:15;;;;;;;10.50;9.57;;;23.90;99.90;;;;;;5095787;28;20485;-57
2022/06/22 09:21:53;;;;;;;9.77;8.03;;;23.90;99.90;;;;;;5095261;28;20513;-57
2022/06/22 09:24:23;;;;;;;14.43;9.43;;;24.00;99.90;;;;;;5095820;28;20993;-57
2022/06/22 09:27:13;;;;;;;11.27;9.20;;;23.90;99.90;;;;;;5095675;28;20851;-57
2022/06/22 09:30:00;;;;;;;9.63;8.63;;;23.80;99.90;;;;;;5095799;28;20838;-57
2022/06/22 09:32:53;;;;;;;10.23;8.33;;;23.60;99.90;;;;;;5095686;28;20455;-57
2022/06/22 09:35:53;;;;;;;9.70;8.80;;;23.70;99.90;;;;;;5095555;28;20924;-57
2022/06/22 09:38:40;;;;;;;13.90;8.30;;;23.60;99.90;;;;;;5095984;28;20475;-57
2022/06/22 09:41:15;;;;;;;11.07;8.80;;;23.50;99.90;;;;;;5095731;28;20467;-57
2022/06/22 09:44:23;;;;;;;8.20;7.40;;;23.60;99.90;;;;;;5095625;28;20853;-57
2022/06/22 09:47:14;;;;;;;9.47;8.47;;;23.80;99.90;;;;;;5095300;28;20432;-57
2022/06/22 09:50:14;;;;;;;10.43;9.43;;;24.10;99.90;;;;;;5095518;28;20459;-57
2022/06/22 09:53:13;;;;;;;13.07;9.17;;;24.20;99.90;;;;;;5095697;28;20427;-57
2022/06/22 10:02:20;;;;;;;9.10;8.13;;;24.30;99.90;;;;;;5089247;28;20918;-57
2022/06/22 10:05:24;;;;;;;7.00;6.40;;;24.30;99.90;;;;;;5095283;28;20424;-57
2022/06/22 10:08:06;;;;;;;11.17;8.60;;;24.40;99.90;;;;;;5095434;28;20450;-57
2022/06/22 10:10:48;;;;;;;10.40;8.80;;;24.40;99.90;;;;;;5095136;28;20460;-57
2022/06/22 10:13:46;;;;;;;7.97;7.27;;;24.40;99.90;;;;;;5094898;28;20432;-57
2022/06/22 10:16:24;;;;;;;13.60;9.80;;;24.30;99.90;;;;;;5095762;28;20474;-57
2022/06/22 10:19:16;;;;;;;7.70;7.00;;;23.90;99.90;;;;;;5094878;28;20431;-57
2022/06/22 10:21:56;;;;;;;9.90;9.00;;;24.00;99.90;;;;;;5095522;28;20455;-57
2022/06/22 10:24:43;;;;;;;10.80;8.63;;;23.90;99.90;;;;;;5094841;28;20500;-57
2022/06/22 10:27:39;;;;;;;10.53;8.67;;;23.90;99.90;;;;;;5094526;28;20891;-57
2022/06/22 10:30:18;;;;;;;10.57;9.53;;;23.90;99.90;;;;;;5094345;28;20962;-58
2022/06/22 10:33:21;;;;;;;9.67;8.80;;;24.00;99.90;;;;;;5095341;28;20423;-57
2022/06/22 10:36:10;;;;;;;10.80;8.37;;;23.70;99.90;;;;;;5094380;28;20511;-57
2022/06/22 10:39:07;;;;;;;9.30;8.40;;;23.60;99.90;;;;;;5093480;28;20479;-58
2022/06/22 10:47:59;;;;;;;10.57;9.67;;;23.70;99.90;;;;;;5094358;28;20404;-58
2022/06/22 10:50:42;;;;;;;8.67;8.07;;;23.80;99.90;;;;;;5094212;28;20513;-58
2022/06/22 10:53:40;;;;;;;12.77;11.60;;;23.60;99.90;;;;;;5094970;28;20428;-58
2022/06/22 10:56:21;;;;;;;12.77;11.70;;;23.30;99.90;;;;;;5094415;28;20428;-57
2022/06/22 10:59:16;;;;;;;11.87;10.77;;;23.00;99.90;;;;;;5094122;28;20431;-58
2022/06/22 11:02:02;;;;;;;11.37;10.37;;;22.40;99.90;;;;;;5093913;28;20446;-57
2022/06/22 11:05:07;;;;;;;12.03;10.97;;;22.10;99.90;;;;;;5093833;28;20952;-57
2022/06/22 11:07:59;;;;;;;11.53;10.53;;;22.20;99.90;;;;;;5094384;28;20447;-57
2022/06/22 11:10:43;;;;;;;10.73;9.80;;;22.30;99.90;;;;;;5094094;28;20452;-58
2022/06/22 11:13:38;;;;;;;10.93;9.83;;;22.40;99.90;;;;;;5093992;28;20431;-58
2022/06/22 11:16:22;;;;;;;12.73;10.37;;;22.30;99.90;;;;;;5093709;28;20428;-58
2022/06/22 11:19:16;;;;;;;17.67;10.30;;;22.20;99.90;;;;;;5093889;28;20473;-58
2022/06/22 11:21:59;;;;;;;12.23;11.03;;;22.20;99.90;;;;;;5093948;28;20432;-58
2022/06/22 11:24:58;;;;;;;15.17;10.33;;;22.20;99.90;;;;;;5093460;28;20455;-58
2022/06/22 11:33:45;;;;;;;10.27;9.37;;;22.60;99.90;;;;;;5093521;28;20791;-58
2022/06/22 11:36:23;;;;;;;11.53;10.53;;;23.00;99.90;;;;;;5093597;28;20542;-58
2022/06/22 11:39:19;;;;;;;11.37;10.23;;;23.10;99.90;;;;;;5093185;28;20534;-57
2022/06/22 11:42:01;;;;;;;10.33;9.17;;;22.90;99.90;;;;;;5089949;28;20483;-57
2022/06/22 11:48:01;;;;;;;8.67;7.80;;;22.70;99.90;;;;;;5093460;28;20403;-58
2022/06/22 11:50:36;;;;;;;9.30;8.17;;;22.70;99.90;;;;;;5093284;28;20526;-57
2022/06/22 11:53:23;;;;;;;9.50;8.70;;;22.80;99.90;;;;;;5093091;28;20435;-58
2022/06/22 11:55:56;;;;;;;10.37;9.20;;;22.80;99.90;;;;;;5093786;28;20462;-58
2022/06/22 11:58:59;;;;;;;10.10;8.37;;;22.80;99.90;;;;;;5093268;28;20420;-57
2022/06/22 12:01:52;;;;;;;8.43;7.73;;;22.80;99.90;;;;;;5093353;28;20463;-57
2022/06/22 12:04:54;;;;;;;9.50;8.70;;;22.80;99.90;;;;;;5093853;28;20435;-58
2022/06/22 12:07:55;;;;;;;10.93;9.80;;;22.90;99.90;;;;;;5093679;28;20877;-58
2022/06/22 12:10:50;;;;;;;9.90;8.93;;;22.90;99.90;;;;;;5093488;28;20558;-58
2022/06/22 12:15:04;;;;;;;10.23;9.23;;;22.90;99.90;;;;;;5093138;28;20434;-57
2022/06/22 12:16:32;;;;;;;9.70;8.70;;;23.20;99.90;;;;;;5093054;28;20434;-58
2022/06/22 12:19:14;;;;;;;8.43;7.30;;;23.40;99.90;;;;;;5092933;28;20459;-58
2022/06/22 12:21:51;;;;;;;10.10;9.30;;;23.80;99.90;;;;;;5092890;28;20965;-58
2022/06/22 12:24:34;;;;;;;10.33;9.33;;;23.60;99.90;;;;;;5093002;28;20431;-58
2022/06/22 12:27:11;;;;;;;14.03;10.77;;;23.50;99.90;;;;;;5093425;28;20427;-56
2022/06/22 12:29:59;;;;;;;10.53;8.00;;;23.60;99.90;;;;;;5092891;28;20494;-57
2022/06/22 12:32:30;;;;;;;8.70;8.10;;;23.70;99.90;;;;;;5082714;28;20854;-57
2022/06/22 12:35:05;;;;;;;7.40;6.80;;;24.00;99.90;;;;;;5093203;28;20423;-57
2022/06/22 12:37:37;;;;;;;7.93;7.10;;;24.00;99.90;;;;;;5092812;28;20489;-57
2022/06/22 12:40:11;;;;;;;9.07;6.53;;;23.80;99.90;;;;;;5093240;28;20519;-58
2022/06/22 12:42:53;;;;;;;8.10;6.70;;;23.70;99.90;;;;;;5093213;28;20843;-58
2022/06/22 12:45:50;;;;;;;10.67;5.50;;;23.50;99.90;;;;;;5093208;28;20836;-58
2022/06/22 12:48:54;;;;;;;10.30;6.60;;;23.20;99.90;;;;;;5092860;28;20471;-58
2022/06/22 12:51:28;;;;;;;10.80;6.40;;;23.40;99.90;;;;;;5092732;28;20446;-58
2022/06/22 12:54:02;;;;;;;9.50;6.83;;;23.30;99.90;;;;;;5093090;28;20959;-58
2022/06/22 12:56:35;;;;;;;10.60;6.93;;;23.40;99.90;;;;;;5092885;28;20423;-58
2022/06/22 12:59:08;;;;;;;11.00;7.33;;;23.50;99.90;;;;;;5095908;28;20463;-58
2022/06/22 13:01:37;;;;;;;11.33;7.53;;;23.50;99.90;;;;;;5096248;28;20498;-58
2022/06/22 13:04:08;;;;;;;9.83;7.00;;;23.50;99.90;;;;;;5096116;28;20450;-58
2022/06/22 13:06:42;;;;;;;10.00;7.07;;;23.10;99.90;;;;;;5096057;28;20941;-58
2022/06/22 13:09:11;;;;;;;9.60;6.37;;;23.10;99.90;;;;;;5096432;28;20496;-57
2022/06/22 13:11:38;;;;;;;9.90;7.03;;;23.20;99.90;;;;;;5096405;28;20443;-58
2022/06/22 13:14:27;;;;;;;9.97;7.47;;;23.30;99.90;;;;;;5096409;28;20477;-58
2022/06/22 13:17:07;;;;;;;8.67;5.50;;;23.10;99.90;;;;;;5096035;28;20424;-57
2022/06/22 13:19:47;;;;;;;11.43;6.20;;;23.10;99.90;;;;;;5095826;28;20464;-58
2022/06/22 13:22:19;;;;;;;8.13;5.83;;;23.20;99.90;;;;;;5095815;28;20494;-58
2022/06/22 13:24:54;;;;;;;9.60;6.10;;;23.10;99.90;;;;;;5095994;28;20432;-58
2022/06/22 13:27:39;;;;;;;9.07;6.80;;;23.00;99.90;;;;;;5095754;28;20459;-58
2022/06/22 13:30:21;;;;;;;8.93;5.80;;;23.30;99.90;;;;;;5095873;28;20513;-57
2022/06/22 13:32:56;;;;;;;7.43;6.43;;;23.20;99.90;;;;;;5095454;28;20438;-57
2022/06/22 13:35:31;;;;;;;8.00;6.20;;;23.30;99.90;;;;;;5095655;28;20530;-57
2022/06/22 13:38:17;;;;;;;13.33;6.80;;;23.30;99.90;;;;;;5095233;28;20823;-58
2022/06/22 13:40:56;;;;;;;10.47;7.13;;;23.40;99.90;;;;;;5095691;28;20487;-57
2022/06/22 13:43:59;;;;;;;12.80;7.10;;;23.40;99.90;;;;;;5095895;28;20466;-57
2022/06/22 13:46:45;;;;;;;12.90;7.03;;;23.30;99.90;;;;;;5095216;28;20538;-57
2022/06/22 13:49:19;;;;;;;7.77;5.63;;;23.50;99.90;;;;;;5095234;28;20463;-57
2022/06/22 13:52:15;;;;;;;10.67;6.63;;;23.60;99.90;;;;;;5095547;28;20511;-57
2022/06/22 13:55:21;;;;;;;13.17;8.20;;;23.80;99.90;;;;;;5095500;28;20481;-57
2022/06/22 13:57:56;;;;;;;9.57;7.00;;;24.00;99.90;;;;;;5095484;28;20478;-57
2022/06/22 14:00:28;;;;;;;13.17;7.97;;;24.10;99.90;;;;;;5095350;28;20535;-57
2022/06/22 14:03:07;;;;;;;8.63;7.27;;;24.10;99.90;;;;;;5095497;28;20423;-57
2022/06/22 14:05:44;;;;;;;14.93;7.63;;;24.10;99.90;;;;;;5095344;28;20533;-57